Mikkeli, Suomi

17. lokakuuta 2018 klo 20:21 (EEST) (GMT +0300)
Mikkeli | | Change Station

Kork 453 ft 61.73 °N, 27.30 °E | Updated 31 minutes ago

Sumua
Sumua
52 °F
Tuntuu kuin 52 °F
N
7
Tuuli Suunnaltaan vaihteleva Tuuli ilmansuunnasta Etelä

Tänään
Korkea -- | Matala -- °F
--% Sateen mahd.
Eilen
Korkea -- | Matala -- °F
Precip. -- tuumaa
Ilmanpaine 30.01 tuumaa
Näkyvyys -9999.0 mailia
Pilviä Täysin pilvistä 500 ft
Kastepiste 52 °F
Ilmankosteus 100%
Sademäärä 0.00 tuumaa
Lumensyvyys Ei saatavilla
7:59 AM 5:52 PM
Ensimmäinen neljännes, 59% visible
METAR EFMI 171650Z AUTO 19006KT 140V250 4600 BR OVC005 11/11 Q1016
Ilmanpaine 30.01 tuumaa
Näkyvyys -9999.0 mailia
Pilviä Täysin pilvistä 500 ft
Kastepiste 52 °F
Ilmankosteus 100%
Sademäärä 0.00 tuumaa
Lumensyvyys Ei saatavilla
7:59 AM 5:52 PM
Ensimmäinen neljännes, 59% visible
METAR EFMI 171650Z AUTO 19006KT 140V250 4600 BR OVC005 11/11 Q1016

Get Severe Weather Alerts

Thanks for signing up!

Be on the lookout for a verification email in your inbox.

You'll start receiving the daily forecast at 6 AM.

×

10-Day Weather Forecast

×

Almanac

Tähtitiede

Oct. 17, 2018 Nousuaika Laskuaika
Valoisa aika
Porvarillinen hämärä
Nauttinen hämärä
Astronominen hämärä
Kuu
Näkyvän valon pituus
Päivän pituus
Tomorrow will be .
, % of the Moon is Illuminated

Tämän päivän ennätykset

Country Highs Country Lows

Community

WunderPhotos

Category 6

Welcome to Category 6. This is the collective home for Weather Underground's featured writeups by Dr. Jeff Masters (right), Bob Henson (left), Chris Burt, and other regular contributors.

Nearby

Ilmanlaatu

  Ilmanlaatu AQ Index Pollutant
Not available.

Lumensyvyys

Station Depth Korkeus

Maanjäristysaktiivisuus

Paikkakunta Distance Mag. Time & Date
Minimum magnitude displayed is 2.5.

Coastal Water Temperatures

Paikka Lämpötila

Stations

Lähimmät sääasemat

Aseman sijainti Lämpötila Tuulen hyytävyys Kastepiste Ilmankosteus Tuuli Precip. Kork Päivitetty Tyyppi